sensor_id;sensor_type;location;lat;lon;timestamp;P1;durP1;ratioP1;P2;durP2;ratioP2
22557;SDS011;11445;53.816;8.902;2024-03-23T00:52:53;23.52;;;3.78;;
22557;SDS011;11445;53.816;8.902;2024-03-23T00:55:20;29.98;;;5.03;;
22557;SDS011;11445;53.816;8.902;2024-03-23T00:57:47;33.03;;;4.78;;
22557;SDS011;11445;53.816;8.902;2024-03-23T01:00:13;27.95;;;4.25;;
22557;SDS011;11445;53.816;8.902;2024-03-23T01:02:41;24.90;;;4.38;;
22557;SDS011;11445;53.816;8.902;2024-03-23T01:05:07;30.58;;;4.35;;
22557;SDS011;11445;53.816;8.902;2024-03-23T01:07:34;33.50;;;5.53;;
22557;SDS011;11445;53.816;8.902;2024-03-23T01:10:01;20.98;;;4.55;;
22557;SDS011;11445;53.816;8.902;2024-03-23T01:12:29;26.40;;;4.60;;
22557;SDS011;11445;53.816;8.902;2024-03-23T01:14:55;27.40;;;4.93;;
22557;SDS011;11445;53.816;8.902;2024-03-23T01:17:22;40.22;;;4.47;;
22557;SDS011;11445;53.816;8.902;2024-03-23T01:19:48;25.10;;;4.80;;
22557;SDS011;11445;53.816;8.902;2024-03-23T01:22:15;31.02;;;4.55;;
22557;SDS011;11445;53.816;8.902;2024-03-23T01:24:41;19.45;;;3.88;;
22557;SDS011;11445;53.816;8.902;2024-03-23T01:27:09;30.83;;;4.22;;
22557;SDS011;11445;53.816;8.902;2024-03-23T01:29:35;27.15;;;4.03;;
22557;SDS011;11445;53.816;8.902;2024-03-23T01:32:02;35.33;;;5.65;;
22557;SDS011;11445;53.816;8.902;2024-03-23T01:34:28;41.55;;;4.68;;
22557;SDS011;11445;53.816;8.902;2024-03-23T01:36:55;24.40;;;4.40;;
22557;SDS011;11445;53.816;8.902;2024-03-23T01:39:21;26.75;;;4.15;;
22557;SDS011;11445;53.816;8.902;2024-03-23T01:41:48;27.65;;;4.22;;
22557;SDS011;11445;53.816;8.902;2024-03-23T01:44:16;30.52;;;4.65;;
22557;SDS011;11445;53.816;8.902;2024-03-23T01:46:43;26.60;;;4.65;;
22557;SDS011;11445;53.816;8.902;2024-03-23T01:49:10;28.90;;;4.20;;
22557;SDS011;11445;53.816;8.902;2024-03-23T01:51:38;39.33;;;4.70;;
22557;SDS011;11445;53.816;8.902;2024-03-23T01:54:04;30.67;;;5.35;;
22557;SDS011;11445;53.816;8.902;2024-03-23T01:56:32;31.60;;;4.38;;
22557;SDS011;11445;53.816;8.902;2024-03-23T01:59:00;25.27;;;4.25;;
22557;SDS011;11445;53.816;8.902;2024-03-23T02:01:28;24.17;;;3.85;;
22557;SDS011;11445;53.816;8.902;2024-03-23T02:03:56;33.25;;;5.07;;
22557;SDS011;11445;53.816;8.902;2024-03-23T02:06:23;19.23;;;3.88;;
22557;SDS011;11445;53.816;8.902;2024-03-23T02:08:50;21.00;;;3.72;;
22557;SDS011;11445;53.816;8.902;2024-03-23T02:11:17;27.35;;;4.15;;
22557;SDS011;11445;53.816;8.902;2024-03-23T02:13:43;28.92;;;4.53;;
22557;SDS011;11445;53.816;8.902;2024-03-23T02:16:10;23.88;;;4.60;;
22557;SDS011;11445;53.816;8.902;2024-03-23T02:18:37;26.60;;;4.15;;
22557;SDS011;11445;53.816;8.902;2024-03-23T02:21:04;20.33;;;3.88;;
22557;SDS011;11445;53.816;8.902;2024-03-23T02:23:32;27.77;;;3.85;;
22557;SDS011;11445;53.816;8.902;2024-03-23T02:25:59;30.13;;;4.47;;
22557;SDS011;11445;53.816;8.902;2024-03-23T02:28:25;33.08;;;4.25;;
22557;SDS011;11445;53.816;8.902;2024-03-23T02:30:52;31.75;;;4.22;;
22557;SDS011;11445;53.816;8.902;2024-03-23T02:33:18;35.10;;;4.90;;
22557;SDS011;11445;53.816;8.902;2024-03-23T02:35:45;23.85;;;4.10;;
22557;SDS011;11445;53.816;8.902;2024-03-23T02:38:12;35.03;;;5.07;;
22557;SDS011;11445;53.816;8.902;2024-03-23T02:40:40;28.75;;;4.43;;
22557;SDS011;11445;53.816;8.902;2024-03-23T02:43:06;27.25;;;4.43;;
22557;SDS011;11445;53.816;8.902;2024-03-23T02:45:33;29.63;;;4.47;;
22557;SDS011;11445;53.816;8.902;2024-03-23T02:47:59;30.10;;;4.32;;
22557;SDS011;11445;53.816;8.902;2024-03-23T02:50:26;28.90;;;4.18;;
22557;SDS011;11445;53.816;8.902;2024-03-23T02:52:52;25.08;;;4.03;;
22557;SDS011;11445;53.816;8.902;2024-03-23T02:55:19;27.67;;;4.00;;
22557;SDS011;11445;53.816;8.902;2024-03-23T02:57:46;25.30;;;4.32;;
22557;SDS011;11445;53.816;8.902;2024-03-23T03:00:13;32.28;;;4.07;;
22557;SDS011;11445;53.816;8.902;2024-03-23T03:02:40;28.95;;;5.10;;
22557;SDS011;11445;53.816;8.902;2024-03-23T03:05:07;27.33;;;4.55;;
22557;SDS011;11445;53.816;8.902;2024-03-23T03:07:34;23.52;;;3.65;;
22557;SDS011;11445;53.816;8.902;2024-03-23T03:10:03;34.22;;;4.45;;
22557;SDS011;11445;53.816;8.902;2024-03-23T03:12:31;27.52;;;4.40;;
22557;SDS011;11445;53.816;8.902;2024-03-23T03:14:59;22.83;;;3.90;;
22557;SDS011;11445;53.816;8.902;2024-03-23T03:17:25;32.85;;;4.45;;
22557;SDS011;11445;53.816;8.902;2024-03-23T03:19:52;24.50;;;4.60;;
22557;SDS011;11445;53.816;8.902;2024-03-23T03:22:20;46.85;;;5.22;;
22557;SDS011;11445;53.816;8.902;2024-03-23T03:24:48;23.45;;;4.55;;
22557;SDS011;11445;53.816;8.902;2024-03-23T03:27:14;31.63;;;4.40;;
22557;SDS011;11445;53.816;8.902;2024-03-23T03:29:41;23.65;;;4.22;;
22557;SDS011;11445;53.816;8.902;2024-03-23T03:32:08;35.47;;;5.13;;
22557;SDS011;11445;53.816;8.902;2024-03-23T03:34:35;28.75;;;4.78;;
22557;SDS011;11445;53.816;8.902;2024-03-23T03:37:01;22.50;;;4.20;;
22557;SDS011;11445;53.816;8.902;2024-03-23T03:39:28;32.35;;;4.78;;
22557;SDS011;11445;53.816;8.902;2024-03-23T03:41:54;30.52;;;5.22;;
22557;SDS011;11445;53.816;8.902;2024-03-23T03:44:21;35.40;;;5.00;;
22557;SDS011;11445;53.816;8.902;2024-03-23T03:46:47;23.20;;;4.28;;
22557;SDS011;11445;53.816;8.902;2024-03-23T03:49:15;29.35;;;4.72;;
22557;SDS011;11445;53.816;8.902;2024-03-23T03:51:41;20.45;;;3.72;;
22557;SDS011;11445;53.816;8.902;2024-03-23T03:54:08;32.03;;;4.05;;
22557;SDS011;11445;53.816;8.902;2024-03-23T03:56:34;25.58;;;4.03;;
22557;SDS011;11445;53.816;8.902;2024-03-23T03:59:01;30.98;;;5.32;;
22557;SDS011;11445;53.816;8.902;2024-03-23T04:01:27;38.15;;;5.57;;
22557;SDS011;11445;53.816;8.902;2024-03-23T04:03:54;27.55;;;4.80;;
22557;SDS011;11445;53.816;8.902;2024-03-23T04:06:22;24.63;;;4.97;;
22557;SDS011;11445;53.816;8.902;2024-03-23T04:08:49;30.20;;;4.45;;
22557;SDS011;11445;53.816;8.902;2024-03-23T04:11:15;19.02;;;3.55;;
22557;SDS011;11445;53.816;8.902;2024-03-23T04:13:41;34.53;;;5.03;;
22557;SDS011;11445;53.816;8.902;2024-03-23T04:16:08;33.33;;;4.50;;
22557;SDS011;11445;53.816;8.902;2024-03-23T04:18:35;37.03;;;5.50;;
22557;SDS011;11445;53.816;8.902;2024-03-23T04:21:01;29.45;;;4.63;;
22557;SDS011;11445;53.816;8.902;2024-03-23T04:23:29;27.30;;;4.80;;
22557;SDS011;11445;53.816;8.902;2024-03-23T04:25:55;26.20;;;5.00;;
22557;SDS011;11445;53.816;8.902;2024-03-23T04:28:28;21.77;;;4.15;;
22557;SDS011;11445;53.816;8.902;2024-03-23T04:30:54;26.13;;;4.30;;
22557;SDS011;11445;53.816;8.902;2024-03-23T04:33:21;30.05;;;4.78;;
22557;SDS011;11445;53.816;8.902;2024-03-23T04:35:48;30.52;;;5.07;;
22557;SDS011;11445;53.816;8.902;2024-03-23T04:38:15;31.42;;;4.38;;
22557;SDS011;11445;53.816;8.902;2024-03-23T04:40:44;28.52;;;4.20;;
22557;SDS011;11445;53.816;8.902;2024-03-23T04:43:11;28.40;;;4.40;;
22557;SDS011;11445;53.816;8.902;2024-03-23T04:45:38;24.48;;;4.30;;
22557;SDS011;11445;53.816;8.902;2024-03-23T04:48:06;24.98;;;4.53;;
22557;SDS011;11445;53.816;8.902;2024-03-23T04:50:33;26.30;;;4.55;;
22557;SDS011;11445;53.816;8.902;2024-03-23T04:53:00;29.60;;;5.53;;
22557;SDS011;11445;53.816;8.902;2024-03-23T04:55:27;25.60;;;4.60;;
22557;SDS011;11445;53.816;8.902;2024-03-23T04:57:56;33.42;;;4.45;;
22557;SDS011;11445;53.816;8.902;2024-03-23T05:00:22;21.55;;;4.38;;
22557;SDS011;11445;53.816;8.902;2024-03-23T05:02:49;31.83;;;5.60;;
22557;SDS011;11445;53.816;8.902;2024-03-23T05:05:18;21.23;;;4.57;;
22557;SDS011;11445;53.816;8.902;2024-03-23T05:07:44;35.40;;;5.45;;
22557;SDS011;11445;53.816;8.902;2024-03-23T05:10:11;24.67;;;5.55;;
22557;SDS011;11445;53.816;8.902;2024-03-23T05:12:38;24.30;;;5.57;;
22557;SDS011;11445;53.816;8.902;2024-03-23T05:15:07;21.23;;;4.57;;
22557;SDS011;11445;53.816;8.902;2024-03-23T05:17:33;33.20;;;4.55;;
22557;SDS011;11445;53.816;8.902;2024-03-23T05:20:01;29.58;;;4.07;;
22557;SDS011;11445;53.816;8.902;2024-03-23T05:22:28;33.13;;;5.88;;
22557;SDS011;11445;53.816;8.902;2024-03-23T05:24:56;31.75;;;5.68;;
22557;SDS011;11445;53.816;8.902;2024-03-23T05:27:21;34.42;;;5.43;;
22557;SDS011;11445;53.816;8.902;2024-03-23T05:29:49;32.28;;;5.28;;
22557;SDS011;11445;53.816;8.902;2024-03-23T05:32:16;27.58;;;5.28;;
22557;SDS011;11445;53.816;8.902;2024-03-23T05:34:43;32.25;;;4.72;;
22557;SDS011;11445;53.816;8.902;2024-03-23T05:37:09;27.63;;;5.45;;
22557;SDS011;11445;53.816;8.902;2024-03-23T05:39:36;29.85;;;4.95;;
22557;SDS011;11445;53.816;8.902;2024-03-23T05:42:02;36.75;;;5.47;;
22557;SDS011;11445;53.816;8.902;2024-03-23T05:44:30;21.63;;;5.05;;
22557;SDS011;11445;53.816;8.902;2024-03-23T05:46:56;21.17;;;5.03;;
22557;SDS011;11445;53.816;8.902;2024-03-23T05:49:25;30.60;;;4.40;;
22557;SDS011;11445;53.816;8.902;2024-03-23T05:51:50;28.48;;;4.60;;
22557;SDS011;11445;53.816;8.902;2024-03-23T05:54:18;25.92;;;5.28;;
22557;SDS011;11445;53.816;8.902;2024-03-23T05:56:44;27.35;;;4.72;;
22557;SDS011;11445;53.816;8.902;2024-03-23T05:59:11;22.77;;;4.70;;
22557;SDS011;11445;53.816;8.902;2024-03-23T06:01:36;27.15;;;5.00;;
22557;SDS011;11445;53.816;8.902;2024-03-23T06:04:04;30.65;;;4.75;;
22557;SDS011;11445;53.816;8.902;2024-03-23T06:06:31;26.38;;;4.43;;
22557;SDS011;11445;53.816;8.902;2024-03-23T06:08:58;33.92;;;5.70;;
22557;SDS011;11445;53.816;8.902;2024-03-23T06:11:24;31.52;;;5.25;;
22557;SDS011;11445;53.816;8.902;2024-03-23T06:13:52;27.58;;;4.85;;
22557;SDS011;11445;53.816;8.902;2024-03-23T06:16:18;17.67;;;4.15;;
22557;SDS011;11445;53.816;8.902;2024-03-23T06:18:48;27.65;;;4.45;;
22557;SDS011;11445;53.816;8.902;2024-03-23T06:21:17;19.70;;;4.53;;
22557;SDS011;11445;53.816;8.902;2024-03-23T06:23:45;29.70;;;4.43;;
22557;SDS011;11445;53.816;8.902;2024-03-23T06:26:16;18.08;;;4.30;;
22557;SDS011;11445;53.816;8.902;2024-03-23T06:28:43;31.27;;;4.50;;
22557;SDS011;11445;53.816;8.902;2024-03-23T06:31:09;24.40;;;4.57;;
22557;SDS011;11445;53.816;8.902;2024-03-23T06:33:36;27.00;;;6.25;;
22557;SDS011;11445;53.816;8.902;2024-03-23T06:36:03;29.10;;;6.15;;
22557;SDS011;11445;53.816;8.902;2024-03-23T06:38:30;17.50;;;4.45;;
22557;SDS011;11445;53.816;8.902;2024-03-23T06:40:57;16.83;;;4.07;;
22557;SDS011;11445;53.816;8.902;2024-03-23T06:43:25;18.95;;;3.65;;
22557;SDS011;11445;53.816;8.902;2024-03-23T06:45:53;24.50;;;5.57;;
22557;SDS011;11445;53.816;8.902;2024-03-23T06:48:21;32.67;;;4.72;;
22557;SDS011;11445;53.816;8.902;2024-03-23T06:50:47;24.90;;;4.50;;
22557;SDS011;11445;53.816;8.902;2024-03-23T06:53:14;29.33;;;6.05;;
22557;SDS011;11445;53.816;8.902;2024-03-23T06:55:41;23.05;;;3.80;;
22557;SDS011;11445;53.816;8.902;2024-03-23T06:58:09;21.60;;;4.45;;
22557;SDS011;11445;53.816;8.902;2024-03-23T07:00:38;18.35;;;4.60;;
22557;SDS011;11445;53.816;8.902;2024-03-23T07:03:05;32.60;;;4.22;;
22557;SDS011;11445;53.816;8.902;2024-03-23T07:05:32;31.80;;;4.50;;
22557;SDS011;11445;53.816;8.902;2024-03-23T07:07:59;18.83;;;4.63;;
22557;SDS011;11445;53.816;8.902;2024-03-23T07:10:25;20.60;;;3.97;;
22557;SDS011;11445;53.816;8.902;2024-03-23T07:12:52;21.58;;;3.85;;
22557;SDS011;11445;53.816;8.902;2024-03-23T07:15:19;23.48;;;4.28;;
22557;SDS011;11445;53.816;8.902;2024-03-23T07:17:46;17.90;;;4.47;;
22557;SDS011;11445;53.816;8.902;2024-03-23T07:20:12;25.55;;;4.30;;
22557;SDS011;11445;53.816;8.902;2024-03-23T07:22:39;24.38;;;4.90;;
22557;SDS011;11445;53.816;8.902;2024-03-23T07:25:06;21.23;;;4.13;;
22557;SDS011;11445;53.816;8.902;2024-03-23T07:27:33;21.30;;;4.18;;
22557;SDS011;11445;53.816;8.902;2024-03-23T07:29:59;30.73;;;4.53;;
22557;SDS011;11445;53.816;8.902;2024-03-23T07:32:28;23.65;;;4.40;;
22557;SDS011;11445;53.816;8.902;2024-03-23T07:34:54;23.10;;;4.55;;
22557;SDS011;11445;53.816;8.902;2024-03-23T07:37:21;26.73;;;4.15;;
22557;SDS011;11445;53.816;8.902;2024-03-23T07:39:47;19.40;;;4.85;;
22557;SDS011;11445;53.816;8.902;2024-03-23T07:42:14;28.55;;;4.38;;
22557;SDS011;11445;53.816;8.902;2024-03-23T07:44:40;23.42;;;4.78;;
22557;SDS011;11445;53.816;8.902;2024-03-23T07:47:07;30.52;;;4.35;;
22557;SDS011;11445;53.816;8.902;2024-03-23T07:49:34;16.77;;;3.75;;
22557;SDS011;11445;53.816;8.902;2024-03-23T07:52:01;24.20;;;4.18;;
22557;SDS011;11445;53.816;8.902;2024-03-23T07:54:27;18.95;;;3.90;;
22557;SDS011;11445;53.816;8.902;2024-03-23T07:56:54;22.52;;;4.32;;
22557;SDS011;11445;53.816;8.902;2024-03-23T07:59:20;20.67;;;4.40;;
22557;SDS011;11445;53.816;8.902;2024-03-23T08:01:47;20.55;;;4.82;;
22557;SDS011;11445;53.816;8.902;2024-03-23T08:04:14;18.13;;;4.88;;
22557;SDS011;11445;53.816;8.902;2024-03-23T08:06:42;24.98;;;4.45;;
22557;SDS011;11445;53.816;8.902;2024-03-23T08:09:09;24.75;;;4.20;;
22557;SDS011;11445;53.816;8.902;2024-03-23T08:11:35;25.27;;;3.85;;
22557;SDS011;11445;53.816;8.902;2024-03-23T08:14:03;17.02;;;3.90;;
22557;SDS011;11445;53.816;8.902;2024-03-23T08:16:29;18.00;;;3.33;;
22557;SDS011;11445;53.816;8.902;2024-03-23T08:18:56;17.63;;;3.15;;
22557;SDS011;11445;53.816;8.902;2024-03-23T08:21:22;19.17;;;3.47;;
22557;SDS011;11445;53.816;8.902;2024-03-23T08:23:51;20.45;;;3.50;;
22557;SDS011;11445;53.816;8.902;2024-03-23T08:26:17;17.38;;;2.92;;
22557;SDS011;11445;53.816;8.902;2024-03-23T08:28:44;12.45;;;2.35;;
22557;SDS011;11445;53.816;8.902;2024-03-23T08:31:11;14.55;;;2.88;;
22557;SDS011;11445;53.816;8.902;2024-03-23T08:33:39;15.82;;;3.85;;
22557;SDS011;11445;53.816;8.902;2024-03-23T08:36:08;25.27;;;2.50;;
22557;SDS011;11445;53.816;8.902;2024-03-23T08:38:37;14.35;;;3.13;;
22557;SDS011;11445;53.816;8.902;2024-03-23T08:41:05;13.18;;;3.50;;
22557;SDS011;11445;53.816;8.902;2024-03-23T08:43:35;20.25;;;2.65;;
22557;SDS011;11445;53.816;8.902;2024-03-23T08:46:05;14.20;;;2.85;;
22557;SDS011;11445;53.816;8.902;2024-03-23T08:48:32;13.13;;;2.60;;
22557;SDS011;11445;53.816;8.902;2024-03-23T08:51:00;12.77;;;2.20;;
22557;SDS011;11445;53.816;8.902;2024-03-23T08:53:28;14.32;;;2.10;;
22557;SDS011;11445;53.816;8.902;2024-03-23T08:55:55;19.73;;;2.58;;
22557;SDS011;11445;53.816;8.902;2024-03-23T08:58:24;9.05;;;2.20;;
22557;SDS011;11445;53.816;8.902;2024-03-23T09:00:51;20.38;;;2.47;;
22557;SDS011;11445;53.816;8.902;2024-03-23T09:03:18;14.18;;;2.90;;
22557;SDS011;11445;53.816;8.902;2024-03-23T09:05:44;18.08;;;3.05;;
22557;SDS011;11445;53.816;8.902;2024-03-23T09:08:12;14.93;;;2.95;;
22557;SDS011;11445;53.816;8.902;2024-03-23T09:10:38;23.90;;;2.72;;
22557;SDS011;11445;53.816;8.902;2024-03-23T09:13:05;14.40;;;2.83;;
22557;SDS011;11445;53.816;8.902;2024-03-23T09:15:33;19.35;;;3.47;;
22557;SDS011;11445;53.816;8.902;2024-03-23T09:18:01;16.17;;;2.67;;
22557;SDS011;11445;53.816;8.902;2024-03-23T09:20:27;15.18;;;2.65;;
22557;SDS011;11445;53.816;8.902;2024-03-23T09:22:59;21.75;;;4.22;;
22557;SDS011;11445;53.816;8.902;2024-03-23T09:25:25;19.83;;;2.70;;
22557;SDS011;11445;53.816;8.902;2024-03-23T09:27:52;13.15;;;2.33;;
22557;SDS011;11445;53.816;8.902;2024-03-23T09:30:17;13.35;;;2.67;;
22557;SDS011;11445;53.816;8.902;2024-03-23T09:32:46;16.08;;;2.90;;
22557;SDS011;11445;53.816;8.902;2024-03-23T09:35:13;16.98;;;2.58;;
22557;SDS011;11445;53.816;8.902;2024-03-23T09:37:40;12.05;;;3.08;;
22557;SDS011;11445;53.816;8.902;2024-03-23T09:40:08;18.52;;;3.47;;
22557;SDS011;11445;53.816;8.902;2024-03-23T09:42:36;18.58;;;3.15;;
22557;SDS011;11445;53.816;8.902;2024-03-23T09:45:03;16.38;;;2.83;;
22557;SDS011;11445;53.816;8.902;2024-03-23T09:47:34;13.82;;;2.47;;
22557;SDS011;11445;53.816;8.902;2024-03-23T09:50:02;14.38;;;2.42;;
22557;SDS011;11445;53.816;8.902;2024-03-23T09:52:31;13.23;;;2.58;;
22557;SDS011;11445;53.816;8.902;2024-03-23T09:54:57;16.90;;;2.30;;
22557;SDS011;11445;53.816;8.902;2024-03-23T09:57:24;14.48;;;2.42;;
22557;SDS011;11445;53.816;8.902;2024-03-23T09:59:50;19.90;;;2.85;;
22557;SDS011;11445;53.816;8.902;2024-03-23T10:02:17;12.98;;;2.65;;
22557;SDS011;11445;53.816;8.902;2024-03-23T10:04:45;13.23;;;2.33;;
22557;SDS011;11445;53.816;8.902;2024-03-23T10:07:14;21.77;;;2.85;;
22557;SDS011;11445;53.816;8.902;2024-03-23T10:09:42;18.55;;;2.67;;
22557;SDS011;11445;53.816;8.902;2024-03-23T10:12:09;14.77;;;2.45;;
22557;SDS011;11445;53.816;8.902;2024-03-23T10:14:37;6.82;;;1.60;;
22557;SDS011;11445;53.816;8.902;2024-03-23T10:17:11;10.98;;;1.90;;
22557;SDS011;11445;53.816;8.902;2024-03-23T10:19:39;12.38;;;2.00;;
22557;SDS011;11445;53.816;8.902;2024-03-23T10:22:07;15.90;;;2.40;;
22557;SDS011;11445;53.816;8.902;2024-03-23T10:24:35;13.05;;;1.63;;
22557;SDS011;11445;53.816;8.902;2024-03-23T10:27:02;16.40;;;1.98;;
22557;SDS011;11445;53.816;8.902;2024-03-23T10:29:28;16.80;;;2.25;;
22557;SDS011;11445;53.816;8.902;2024-03-23T10:32:07;21.50;;;2.85;;
22557;SDS011;11445;53.816;8.902;2024-03-23T10:34:33;18.40;;;2.42;;
22557;SDS011;11445;53.816;8.902;2024-03-23T10:37:01;17.20;;;2.58;;
22557;SDS011;11445;53.816;8.902;2024-03-23T10:39:29;16.83;;;2.72;;
22557;SDS011;11445;53.816;8.902;2024-03-23T10:41:59;11.52;;;2.50;;
22557;SDS011;11445;53.816;8.902;2024-03-23T10:44:27;18.58;;;2.20;;
22557;SDS011;11445;53.816;8.902;2024-03-23T10:46:56;13.95;;;2.55;;
22557;SDS011;11445;53.816;8.902;2024-03-23T10:49:25;14.57;;;2.20;;
22557;SDS011;11445;53.816;8.902;2024-03-23T10:51:54;21.33;;;2.30;;
22557;SDS011;11445;53.816;8.902;2024-03-23T10:54:22;13.15;;;2.28;;
22557;SDS011;11445;53.816;8.902;2024-03-23T10:56:51;8.77;;;2.78;;
22557;SDS011;11445;53.816;8.902;2024-03-23T10:59:23;10.40;;;2.42;;
22557;SDS011;11445;53.816;8.902;2024-03-23T11:01:54;11.95;;;2.13;;
22557;SDS011;11445;53.816;8.902;2024-03-23T11:04:30;9.45;;;2.33;;
22557;SDS011;11445;53.816;8.902;2024-03-23T11:06:58;14.68;;;2.30;;
22557;SDS011;11445;53.816;8.902;2024-03-23T11:09:39;15.23;;;2.83;;
22557;SDS011;11445;53.816;8.902;2024-03-23T11:12:29;15.77;;;2.85;;
22557;SDS011;11445;53.816;8.902;2024-03-23T11:15:03;10.43;;;2.10;;
22557;SDS011;11445;53.816;8.902;2024-03-23T11:17:31;11.60;;;2.22;;
22557;SDS011;11445;53.816;8.902;2024-03-23T11:19:58;17.85;;;2.70;;
22557;SDS011;11445;53.816;8.902;2024-03-23T11:22:38;11.52;;;2.38;;
22557;SDS011;11445;53.816;8.902;2024-03-23T11:25:15;12.90;;;1.50;;
22557;SDS011;11445;53.816;8.902;2024-03-23T11:27:43;7.00;;;1.15;;
22557;SDS011;11445;53.816;8.902;2024-03-23T11:30:12;6.15;;;1.50;;
22557;SDS011;11445;53.816;8.902;2024-03-23T11:32:40;10.38;;;1.58;;
22557;SDS011;11445;53.816;8.902;2024-03-23T11:35:07;8.27;;;1.60;;
22557;SDS011;11445;53.816;8.902;2024-03-23T11:37:35;4.30;;;1.70;;
22557;SDS011;11445;53.816;8.902;2024-03-23T11:42:46;12.20;;;2.33;;
22557;SDS011;11445;53.816;8.902;2024-03-23T11:45:22;8.95;;;1.60;;
22557;SDS011;11445;53.816;8.902;2024-03-23T11:47:48;12.55;;;2.40;;
22557;SDS011;11445;53.816;8.902;2024-03-23T11:50:26;13.23;;;2.22;;
22557;SDS011;11445;53.816;8.902;2024-03-23T11:52:53;12.07;;;2.85;;
22557;SDS011;11445;53.816;8.902;2024-03-23T11:55:45;15.73;;;2.53;;
22557;SDS011;11445;53.816;8.902;2024-03-23T11:58:13;11.23;;;2.75;;
22557;SDS011;11445;53.816;8.902;2024-03-23T12:00:41;12.48;;;2.75;;
22557;SDS011;11445;53.816;8.902;2024-03-23T12:03:08;12.13;;;2.97;;
22557;SDS011;11445;53.816;8.902;2024-03-23T12:05:35;7.22;;;1.80;;
22557;SDS011;11445;53.816;8.902;2024-03-23T12:08:16;16.95;;;3.13;;
22557;SDS011;11445;53.816;8.902;2024-03-23T12:10:47;13.52;;;2.58;;
22557;SDS011;11445;53.816;8.902;2024-03-23T12:13:16;13.60;;;2.60;;
22557;SDS011;11445;53.816;8.902;2024-03-23T12:15:45;13.50;;;2.47;;
22557;SDS011;11445;53.816;8.902;2024-03-23T12:18:13;15.60;;;2.35;;
22557;SDS011;11445;53.816;8.902;2024-03-23T12:20:39;13.45;;;2.63;;
22557;SDS011;11445;53.816;8.902;2024-03-23T12:23:07;17.48;;;2.63;;
22557;SDS011;11445;53.816;8.902;2024-03-23T12:25:35;12.20;;;2.67;;
22557;SDS011;11445;53.816;8.902;2024-03-23T12:28:02;12.95;;;2.60;;
22557;SDS011;11445;53.816;8.902;2024-03-23T12:30:31;10.27;;;2.55;;
22557;SDS011;11445;53.816;8.902;2024-03-23T12:33:00;9.77;;;2.10;;
22557;SDS011;11445;53.816;8.902;2024-03-23T12:35:26;14.40;;;2.60;;
22557;SDS011;11445;53.816;8.902;2024-03-23T12:37:53;13.35;;;2.60;;
22557;SDS011;11445;53.816;8.902;2024-03-23T12:40:19;19.65;;;2.95;;
22557;SDS011;11445;53.816;8.902;2024-03-23T12:42:46;12.45;;;2.95;;
22557;SDS011;11445;53.816;8.902;2024-03-23T12:45:13;11.90;;;2.50;;
22557;SDS011;11445;53.816;8.902;2024-03-23T12:47:39;16.30;;;3.20;;
22557;SDS011;11445;53.816;8.902;2024-03-23T12:50:08;14.93;;;2.75;;
22557;SDS011;11445;53.816;8.902;2024-03-23T12:52:35;22.83;;;3.00;;
22557;SDS011;11445;53.816;8.902;2024-03-23T12:55:02;9.05;;;1.40;;
22557;SDS011;11445;53.816;8.902;2024-03-23T12:57:30;10.02;;;2.25;;
22557;SDS011;11445;53.816;8.902;2024-03-23T12:59:57;10.20;;;2.33;;
22557;SDS011;11445;53.816;8.902;2024-03-23T13:02:24;10.73;;;2.42;;
22557;SDS011;11445;53.816;8.902;2024-03-23T13:04:51;16.08;;;2.70;;
22557;SDS011;11445;53.816;8.902;2024-03-23T13:07:19;14.63;;;2.50;;
22557;SDS011;11445;53.816;8.902;2024-03-23T13:09:47;10.90;;;2.17;;
22557;SDS011;11445;53.816;8.902;2024-03-23T13:12:16;6.60;;;2.20;;
22557;SDS011;11445;53.816;8.902;2024-03-23T13:14:43;13.70;;;2.08;;
22557;SDS011;11445;53.816;8.902;2024-03-23T13:17:09;11.18;;;2.05;;
22557;SDS011;11445;53.816;8.902;2024-03-23T13:19:36;11.20;;;2.33;;
22557;SDS011;11445;53.816;8.902;2024-03-23T13:22:03;13.93;;;3.08;;
22557;SDS011;11445;53.816;8.902;2024-03-23T13:24:31;11.60;;;2.92;;
22557;SDS011;11445;53.816;8.902;2024-03-23T13:26:57;11.23;;;2.63;;
22557;SDS011;11445;53.816;8.902;2024-03-23T13:29:24;14.82;;;2.13;;
22557;SDS011;11445;53.816;8.902;2024-03-23T13:31:51;18.67;;;2.58;;
22557;SDS011;11445;53.816;8.902;2024-03-23T13:34:18;9.40;;;2.53;;
22557;SDS011;11445;53.816;8.902;2024-03-23T13:36:45;17.02;;;3.17;;
22557;SDS011;11445;53.816;8.902;2024-03-23T13:39:13;17.00;;;2.92;;
22557;SDS011;11445;53.816;8.902;2024-03-23T13:41:42;13.52;;;2.70;;
22557;SDS011;11445;53.816;8.902;2024-03-23T13:44:10;9.18;;;1.75;;
22557;SDS011;11445;53.816;8.902;2024-03-23T13:46:37;17.63;;;2.10;;
22557;SDS011;11445;53.816;8.902;2024-03-23T13:49:05;11.95;;;2.33;;
22557;SDS011;11445;53.816;8.902;2024-03-23T13:51:32;16.38;;;2.55;;
22557;SDS011;11445;53.816;8.902;2024-03-23T13:53:59;11.43;;;2.38;;
22557;SDS011;11445;53.816;8.902;2024-03-23T13:56:26;12.25;;;1.83;;
22557;SDS011;11445;53.816;8.902;2024-03-23T13:58:55;17.42;;;2.83;;
22557;SDS011;11445;53.816;8.902;2024-03-23T14:01:22;14.57;;;2.33;;
22557;SDS011;11445;53.816;8.902;2024-03-23T14:03:49;16.45;;;2.40;;
22557;SDS011;11445;53.816;8.902;2024-03-23T14:06:15;11.63;;;2.45;;
22557;SDS011;11445;53.816;8.902;2024-03-23T14:08:42;14.90;;;2.63;;
22557;SDS011;11445;53.816;8.902;2024-03-23T14:11:08;15.98;;;2.63;;
22557;SDS011;11445;53.816;8.902;2024-03-23T14:13:35;9.27;;;2.13;;
22557;SDS011;11445;53.816;8.902;2024-03-23T14:16:04;5.93;;;1.85;;
22557;SDS011;11445;53.816;8.902;2024-03-23T14:18:31;9.60;;;2.38;;
22557;SDS011;11445;53.816;8.902;2024-03-23T14:20:57;12.75;;;2.38;;
22557;SDS011;11445;53.816;8.902;2024-03-23T14:23:25;17.35;;;2.25;;
22557;SDS011;11445;53.816;8.902;2024-03-23T14:25:54;17.42;;;3.08;;
22557;SDS011;11445;53.816;8.902;2024-03-23T14:28:21;14.48;;;2.22;;
22557;SDS011;11445;53.816;8.902;2024-03-23T14:30:48;14.27;;;2.55;;
22557;SDS011;11445;53.816;8.902;2024-03-23T14:33:17;18.50;;;3.38;;
22557;SDS011;11445;53.816;8.902;2024-03-23T14:35:43;14.80;;;2.67;;
22557;SDS011;11445;53.816;8.902;2024-03-23T14:38:18;20.83;;;3.28;;
22557;SDS011;11445;53.816;8.902;2024-03-23T14:40:44;19.02;;;2.47;;
22557;SDS011;11445;53.816;8.902;2024-03-23T14:43:11;11.70;;;2.38;;
22557;SDS011;11445;53.816;8.902;2024-03-23T14:45:37;15.85;;;2.65;;
22557;SDS011;11445;53.816;8.902;2024-03-23T14:48:04;11.35;;;2.72;;
22557;SDS011;11445;53.816;8.902;2024-03-23T14:50:32;14.57;;;2.97;;
22557;SDS011;11445;53.816;8.902;2024-03-23T14:52:59;13.70;;;2.97;;
22557;SDS011;11445;53.816;8.902;2024-03-23T14:55:25;17.55;;;2.83;;
22557;SDS011;11445;53.816;8.902;2024-03-23T14:57:53;11.45;;;1.90;;
22557;SDS011;11445;53.816;8.902;2024-03-23T15:00:19;10.50;;;2.05;;
22557;SDS011;11445;53.816;8.902;2024-03-23T15:02:47;7.00;;;1.75;;
22557;SDS011;11445;53.816;8.902;2024-03-23T15:05:13;12.25;;;2.58;;
22557;SDS011;11445;53.816;8.902;2024-03-23T15:07:41;12.98;;;2.80;;
22557;SDS011;11445;53.816;8.902;2024-03-23T15:10:07;12.15;;;2.25;;
22557;SDS011;11445;53.816;8.902;2024-03-23T15:12:35;12.25;;;1.98;;
22557;SDS011;11445;53.816;8.902;2024-03-23T15:15:01;10.85;;;2.63;;
22557;SDS011;11445;53.816;8.902;2024-03-23T15:17:28;9.57;;;2.88;;
22557;SDS011;11445;53.816;8.902;2024-03-23T15:19:54;18.70;;;3.38;;
22557;SDS011;11445;53.816;8.902;2024-03-23T15:22:24;14.40;;;3.20;;
22557;SDS011;11445;53.816;8.902;2024-03-23T15:24:52;12.05;;;2.90;;
22557;SDS011;11445;53.816;8.902;2024-03-23T15:27:19;13.07;;;2.67;;
22557;SDS011;11445;53.816;8.902;2024-03-23T15:29:45;15.07;;;2.55;;
22557;SDS011;11445;53.816;8.902;2024-03-23T15:32:12;18.20;;;4.25;;